Time;durP1;ratioP1;P1;durP2;ratioP2;P2;SDS_P1;SDS_P2;PMS_P1;PMS_P2;Temp;Humidity;BMP_temperature;BMP_pressure;BME280_temperature;BME280_humidity;BME280_pressure;Samples;Min_cycle;Max_cycle;Signal;HPM_P1;HPM_P2
2022/11/12 00:01:14;;;;;;;25.72;10.05;;;;;;;8.89;89.16;101792.80;2990088;78;21385;-87
2022/11/12 00:05:16;;;;;;;14.75;9.00;;;;;;;9.03;88.04;101794.75;2827838;80;21525;-88
2022/11/12 00:09:18;;;;;;;13.05;8.30;;;;;;;9.12;87.25;101796.94;2961207;78;21518;-89
2022/11/12 00:13:19;;;;;;;9.83;8.20;;;;;;;9.12;86.52;101800.92;2982352;77;21045;-89
2022/11/12 00:17:21;;;;;;;19.02;9.78;;;;;;;8.92;87.01;101806.78;2979484;77;21046;-88
2022/11/12 00:21:22;;;;;;;12.00;8.03;;;;;;;8.76;87.78;101813.34;2965098;77;21565;-88
2022/11/12 00:25:23;;;;;;;17.17;10.60;;;;;;;8.60;88.54;101817.20;2919564;79;21482;-88
2022/11/12 00:29:25;;;;;;;15.68;8.93;;;;;;;8.53;88.65;101818.44;2950416;79;21010;-87
2022/11/12 00:33:26;;;;;;;25.23;8.55;;;;;;;8.61;88.53;101816.75;2965409;78;21050;-88
2022/11/12 00:37:28;;;;;;;15.98;7.80;;;;;;;8.69;87.96;101817.21;2963890;77;21604;-87
2022/11/12 00:41:30;;;;;;;12.10;7.55;;;;;;;8.70;87.39;101822.45;2963292;77;20995;-87
2022/11/12 00:45:31;;;;;;;15.30;8.50;;;;;;;8.73;86.88;101811.30;2938700;78;21027;-86
2022/11/12 00:49:32;;;;;;;11.60;8.33;;;;;;;8.73;86.44;101820.58;2921729;79;21509;-88
2022/11/12 00:53:34;;;;;;;13.93;9.28;;;;;;;8.76;85.74;101817.31;2824626;79;21015;-89
2022/11/12 00:57:35;;;;;;;11.95;8.90;;;;;;;8.75;85.39;101820.03;2962337;77;21501;-88
2022/11/12 01:01:38;;;;;;;11.33;8.63;;;;;;;8.56;87.01;101819.61;2927229;78;20988;-88
2022/11/12 01:05:39;;;;;;;19.73;9.83;;;;;;;8.46;88.25;101823.63;2952190;78;21536;-88
2022/11/12 01:09:41;;;;;;;17.95;7.97;;;;;;;8.45;88.47;101830.71;2913708;79;21037;-88
2022/11/12 01:13:45;;;;;;;11.95;7.92;;;;;;;8.46;88.20;101833.75;2954046;78;21003;-88
2022/11/12 01:17:47;;;;;;;14.53;9.23;;;;;;;8.51;88.29;101838.88;2982078;77;21007;-88
2022/11/12 01:21:48;;;;;;;10.60;7.78;;;;;;;8.59;88.15;101845.98;2974294;77;21000;-89
2022/11/12 01:25:49;;;;;;;12.13;8.55;;;;;;;8.67;87.74;101846.48;2871776;78;20999;-88
2022/11/12 01:29:51;;;;;;;17.60;8.73;;;;;;;8.68;87.26;101848.20;2969301;77;21074;-88
2022/11/12 01:33:56;;;;;;;14.58;8.00;;;;;;;8.67;86.87;101838.53;2948910;78;21010;-88
2022/11/12 01:37:57;;;;;;;13.20;8.47;;;;;;;8.69;86.88;101836.66;2973076;77;20963;-88
2022/11/12 01:41:59;;;;;;;13.75;10.23;;;;;;;8.71;86.60;101837.44;2906357;79;21050;-88
2022/11/12 01:46:05;;;;;;;24.92;13.72;;;;;;;8.66;86.58;101835.94;2919306;80;20987;-87
2022/11/12 01:50:23;;;;;;;20.50;10.10;;;;;;;8.60;86.85;101835.77;2884487;80;21023;-88
2022/11/12 01:54:26;;;;;;;17.07;11.50;;;;;;;8.63;86.86;101842.72;2880873;78;21043;-87
2022/11/12 01:58:31;;;;;;;18.12;10.20;;;;;;;8.65;86.51;101837.75;2885951;80;21022;-88
2022/11/12 02:02:34;;;;;;;15.00;9.08;;;;;;;8.65;86.43;101844.38;2974760;77;21003;-88
2022/11/12 02:06:37;;;;;;;19.80;10.75;;;;;;;8.62;86.75;101839.68;2927154;79;21014;-88
2022/11/12 02:10:39;;;;;;;14.87;11.18;;;;;;;8.62;86.81;101843.17;2953154;77;21093;-88
2022/11/12 02:14:40;;;;;;;19.17;11.05;;;;;;;8.61;86.85;101849.42;2968985;77;21962;-89
2022/11/12 02:18:42;;;;;;;12.90;9.53;;;;;;;8.61;86.56;101851.23;2912165;79;21163;-87
2022/11/12 02:22:44;;;;;;;9.85;6.92;;;;;;;8.60;86.33;101848.19;2927514;78;21028;-89
2022/11/12 02:26:50;;;;;;;14.38;8.38;;;;;;;8.60;86.13;101841.55;2944308;78;21637;-89
2022/11/12 02:30:51;;;;;;;12.65;8.00;;;;;;;8.55;85.27;101839.12;2938931;79;21006;-88
2022/11/12 02:34:52;;;;;;;17.15;9.23;;;;;;;8.44;84.90;101831.64;2955181;78;21424;-88
2022/11/12 02:38:54;;;;;;;17.17;8.70;;;;;;;8.36;85.07;101830.69;2950640;79;21015;-88
2022/11/12 02:42:55;;;;;;;13.50;8.45;;;;;;;8.34;85.54;101827.25;2957454;77;21033;-87
2022/11/12 02:46:56;;;;;;;8.70;6.42;;;;;;;8.34;85.79;101829.91;2965249;77;21018;-88
2022/11/12 02:50:58;;;;;;;7.97;7.12;;;;;;;8.30;87.49;101825.69;2972634;77;21094;-88
2022/11/12 02:54:59;;;;;;;11.60;6.58;;;;;;;8.25;87.69;101821.92;2891323;80;21669;-88
2022/11/12 02:59:01;;;;;;;5.85;5.22;;;;;;;8.19;88.46;101827.97;2970331;78;20979;-88
2022/11/12 03:03:02;;;;;;;7.70;6.10;;;;;;;8.09;88.29;101820.47;2930692;78;20997;-88
2022/11/12 03:07:04;;;;;;;8.85;6.03;;;;;;;7.97;87.56;101828.98;2951070;78;21018;-87
2022/11/12 03:11:11;;;;;;;13.18;5.97;;;;;;;7.96;87.50;101827.27;2956000;78;21014;-89
2022/11/12 03:15:13;;;;;;;11.55;7.37;;;;;;;7.98;87.14;101833.34;2933084;78;21555;-88
2022/11/12 03:19:14;;;;;;;9.53;6.33;;;;;;;7.91;86.60;101827.47;2811738;80;21012;-88
2022/11/12 03:23:15;;;;;;;10.70;6.72;;;;;;;7.88;86.80;101825.45;2944058;79;21004;-86
2022/11/12 03:27:17;;;;;;;10.20;6.10;;;;;;;7.86;86.97;101831.67;2936194;78;21560;-87
2022/11/12 03:31:18;;;;;;;7.78;5.78;;;;;;;7.91;87.47;101832.77;2978356;77;20987;-86
2022/11/12 03:35:21;;;;;;;6.58;4.85;;;;;;;7.94;87.50;101829.97;2953238;79;20996;-87
2022/11/12 03:39:22;;;;;;;10.38;7.95;;;;;;;7.93;87.62;101836.68;2959631;78;21128;-87
2022/11/12 03:43:23;;;;;;;9.25;6.47;;;;;;;7.89;88.72;101829.81;2945206;78;20993;-87
2022/11/12 03:47:25;;;;;;;8.43;6.80;;;;;;;7.82;90.49;101834.05;2940999;78;21619;-87
2022/11/12 03:51:26;;;;;;;10.72;7.22;;;;;;;7.72;90.19;101823.48;2934799;79;20966;-88
2022/11/12 03:55:28;;;;;;;14.47;6.80;;;;;;;7.66;89.29;101829.91;2959495;77;20995;-89
2022/11/12 03:59:30;;;;;;;11.25;7.20;;;;;;;7.61;89.17;101825.30;2952020;78;21026;-88
2022/11/12 04:03:31;;;;;;;13.13;8.00;;;;;;;7.60;89.11;101825.34;2941959;78;20983;-89
2022/11/12 04:11:52;;;;;;;7.72;6.17;;;;;;;7.62;89.26;101836.28;2949053;78;21059;-88
2022/11/12 04:33:27;;;;;;;13.58;9.05;;;;;;;7.51;88.25;101830.14;2959012;77;20959;-88
2022/11/12 04:37:43;;;;;;;10.28;8.90;;;;;;;7.47;88.53;101824.59;2999415;77;21497;-88
2022/11/12 04:46:04;;;;;;;10.30;8.00;;;;;;;7.42;89.80;101823.46;2939227;78;21031;-87
2022/11/12 04:50:11;;;;;;;11.60;7.45;;;;;;;7.42;90.24;101830.08;2931862;78;21043;-88
2022/11/12 04:54:13;;;;;;;8.68;6.95;;;;;;;7.44;90.23;101824.70;2882421;80;21447;-87
2022/11/12 04:58:15;;;;;;;11.60;7.92;;;;;;;7.45;89.71;101822.45;2945990;79;20967;-88
2022/11/12 05:02:17;;;;;;;13.85;8.25;;;;;;;7.39;91.44;101827.58;2917413;79;21003;-88
2022/11/12 05:10:37;;;;;;;16.10;9.05;;;;;;;7.37;91.55;101831.20;2940244;77;21004;-88
2022/11/12 05:14:39;;;;;;;15.93;9.20;;;;;;;7.35;92.14;101833.06;2970409;78;21032;-88
2022/11/12 05:18:40;;;;;;;19.70;11.53;;;;;;;7.39;92.21;101831.99;2982343;77;21042;-87
2022/11/12 05:22:42;;;;;;;17.05;10.55;;;;;;;7.43;92.09;101832.25;2990901;77;21562;-88
2022/11/12 05:26:43;;;;;;;12.60;8.73;;;;;;;7.35;92.11;101836.55;2918439;77;21015;-87
2022/11/12 05:30:47;;;;;;;18.77;9.20;;;;;;;7.37;92.23;101844.44;2921117;79;21079;-87
2022/11/12 05:34:48;;;;;;;16.85;7.65;;;;;;;7.34;91.38;101849.88;2969584;77;20972;-88
2022/11/12 05:38:50;;;;;;;17.65;8.50;;;;;;;7.36;91.42;101851.98;2977881;77;21543;-87
2022/11/12 05:42:51;;;;;;;16.30;8.80;;;;;;;7.38;91.07;101848.81;2943968;78;20979;-87
2022/11/12 05:46:52;;;;;;;13.78;8.45;;;;;;;7.43;91.05;101857.40;2931010;79;21006;-87
2022/11/12 05:50:56;;;;;;;16.93;7.72;;;;;;;7.47;90.55;101856.37;2896943;80;20975;-87
2022/11/12 05:54:57;;;;;;;12.70;7.70;;;;;;;7.45;89.56;101867.45;2998182;77;21624;-88
2022/11/12 05:58:59;;;;;;;18.67;8.18;;;;;;;7.45;89.18;101874.08;2962658;77;20998;-87
2022/11/12 06:03:00;;;;;;;13.25;7.97;;;;;;;7.45;89.23;101878.05;2979458;77;21000;-88
2022/11/12 06:07:02;;;;;;;13.35;8.28;;;;;;;7.44;89.27;101872.36;2962650;78;21475;-88
2022/11/12 06:11:04;;;;;;;13.20;8.15;;;;;;;7.43;89.12;101871.96;2928336;79;20992;-87
2022/11/12 06:15:06;;;;;;;11.53;7.40;;;;;;;7.38;89.01;101876.16;2810281;80;20995;-89
2022/11/12 06:19:08;;;;;;;11.95;8.15;;;;;;;7.34;88.69;101882.96;2858740;79;21023;-88
2022/11/12 06:23:09;;;;;;;10.40;7.70;;;;;;;7.33;88.96;101881.25;2936109;79;21011;-88
2022/11/12 06:27:10;;;;;;;11.50;7.25;;;;;;;7.29;89.05;101884.03;2872685;78;21082;-88
2022/11/12 06:31:12;;;;;;;13.48;7.95;;;;;;;7.25;89.24;101885.53;2951130;77;21015;-88
2022/11/12 06:35:14;;;;;;;9.85;6.33;;;;;;;7.18;89.34;101887.58;2947976;78;21049;-89
2022/11/12 06:39:16;;;;;;;6.60;5.65;;;;;;;7.10;90.16;101884.41;2928109;77;21538;-88
2022/11/12 06:43:17;;;;;;;15.90;8.23;;;;;;;7.09;91.32;101882.20;2995306;77;21592;-88
2022/11/12 06:47:18;;;;;;;17.35;9.45;;;;;;;7.14;91.20;101885.98;2921895;79;21035;-89
2022/11/12 06:51:20;;;;;;;12.78;8.33;;;;;;;7.22;91.46;101885.19;2967219;77;21058;-87
2022/11/12 06:55:21;;;;;;;15.65;9.30;;;;;;;7.30;91.42;101886.19;2981198;77;21882;-89
2022/11/12 06:59:23;;;;;;;16.07;10.60;;;;;;;7.39;91.73;101891.11;2947278;77;21051;-88
2022/11/12 07:03:24;;;;;;;15.80;9.75;;;;;;;7.50;91.56;101893.30;2981440;77;21000;-88
2022/11/12 07:07:25;;;;;;;14.83;8.73;;;;;;;7.61;91.20;101892.83;2911493;79;21051;-88
2022/11/12 07:11:27;;;;;;;12.20;8.80;;;;;;;7.64;90.90;101894.02;2895869;80;21698;-88
2022/11/12 07:15:28;;;;;;;15.95;9.75;;;;;;;7.69;91.28;101899.97;2912442;80;21078;-88
2022/11/12 07:19:48;;;;;;;10.70;7.58;;;;;;;7.80;91.39;101902.14;2921476;80;21130;-88
2022/11/12 07:23:49;;;;;;;10.85;8.28;;;;;;;7.87;90.97;101901.41;2851268;79;20988;-88
2022/11/12 07:27:52;;;;;;;13.10;8.40;;;;;;;7.91;91.79;101911.41;2895608;78;21038;-87
2022/11/12 07:31:54;;;;;;;15.30;9.20;;;;;;;8.03;91.93;101913.48;2973808;78;20999;-90
2022/11/12 07:36:05;;;;;;;12.90;9.03;;;;;;;8.13;91.01;101911.28;2984393;78;21018;-89
2022/11/12 07:40:07;;;;;;;19.05;10.95;;;;;;;8.18;89.92;101913.73;2962858;78;20992;-88
2022/11/12 07:44:09;;;;;;;15.55;11.05;;;;;;;8.32;90.73;101909.98;2928670;78;20963;-89
2022/11/12 07:48:10;;;;;;;12.75;9.85;;;;;;;8.50;90.34;101914.91;2931534;78;21006;-89
2022/11/12 07:52:11;;;;;;;12.95;8.85;;;;;;;8.71;89.58;101916.16;2951765;77;21534;-90
2022/11/12 07:56:17;;;;;;;13.68;8.80;;;;;;;8.86;89.05;101914.58;2933605;79;21078;-90
2022/11/12 08:00:18;;;;;;;13.88;8.25;;;;;;;8.94;88.38;101909.73;2939846;77;21448;-90
2022/11/12 08:04:20;;;;;;;11.38;8.50;;;;;;;8.97;89.39;101906.93;2977636;77;21022;-90
2022/11/12 08:08:21;;;;;;;12.47;9.85;;;;;;;9.05;90.03;101911.02;2972403;77;21037;-87
2022/11/12 08:12:22;;;;;;;19.67;10.13;;;;;;;9.20;90.25;101914.22;2980369;79;21097;-87
2022/11/12 08:16:24;;;;;;;14.33;10.53;;;;;;;9.32;89.50;101913.22;2873350;79;21130;-88
2022/11/12 08:20:25;;;;;;;13.48;9.38;;;;;;;9.48;90.40;101915.95;2873822;79;21073;-89
2022/11/12 08:24:27;;;;;;;11.70;9.75;;;;;;;9.68;91.34;101918.43;2969931;77;21891;-86
2022/11/12 08:28:29;;;;;;;12.45;9.28;;;;;;;9.93;92.46;101919.82;2975501;77;21500;-87
2022/11/12 08:32:31;;;;;;;17.12;9.30;;;;;;;10.15;91.95;101927.97;3006221;77;21099;-85
2022/11/12 08:36:32;;;;;;;19.77;10.18;;;;;;;10.26;90.33;101926.06;2979531;78;21156;-86
2022/11/12 08:40:34;;;;;;;16.85;10.53;;;;;;;10.28;89.99;101927.67;2971305;77;21655;-86
2022/11/12 08:44:35;;;;;;;10.93;9.03;;;;;;;10.34;89.71;101917.17;2969606;77;21086;-86
2022/11/12 08:48:38;;;;;;;9.08;8.15;;;;;;;10.49;90.76;101919.98;2954522;78;21152;-86
2022/11/12 08:52:40;;;;;;;13.35;8.48;;;;;;;10.56;91.64;101925.33;3000795;77;20978;-86
2022/11/12 08:56:41;;;;;;;12.20;8.45;;;;;;;10.66;90.77;101924.34;2891681;77;21552;-86
2022/11/12 09:00:43;;;;;;;10.90;8.25;;;;;;;10.69;91.71;101918.84;2935739;78;21066;-85
2022/11/12 09:04:44;;;;;;;17.37;7.75;;;;;;;10.73;89.99;101928.86;2849878;80;21063;-85
2022/11/12 09:08:45;;;;;;;13.80;8.75;;;;;;;10.90;91.33;101928.77;2948059;78;21489;-87
2022/11/12 09:12:52;;;;;;;13.00;7.60;;;;;;;11.10;91.59;101922.77;2937249;79;21010;-86
2022/11/12 09:16:54;;;;;;;13.98;8.13;;;;;;;11.18;87.99;101925.83;2948927;78;21000;-86
2022/11/12 09:21:05;;;;;;;12.63;7.67;;;;;;;11.37;89.53;101918.95;2963011;78;21537;-85
2022/11/12 09:25:07;;;;;;;13.68;7.65;;;;;;;11.45;88.82;101917.63;2942280;78;21043;-86
2022/11/12 09:29:08;;;;;;;10.90;7.17;;;;;;;11.59;89.22;101915.00;2891022;80;21066;-86
2022/11/12 09:33:10;;;;;;;9.35;6.85;;;;;;;11.75;89.45;101917.59;2987474;77;21372;-87
2022/11/12 09:37:11;;;;;;;10.35;7.53;;;;;;;11.83;89.46;101914.45;2977168;77;21012;-90
2022/11/12 09:41:39;;;;;;;9.08;6.85;;;;;;;11.94;88.96;101912.46;2911136;78;21542;-88
2022/11/12 09:45:40;;;;;;;11.38;7.72;;;;;;;12.08;89.14;101906.30;2962114;78;21004;-87
2022/11/12 09:49:56;;;;;;;10.58;8.40;;;;;;;12.20;86.25;101908.20;2912557;79;21046;-87
2022/11/12 09:54:01;;;;;;;12.07;8.43;;;;;;;12.38;88.54;101905.33;2957947;78;21018;-88
2022/11/12 09:58:12;;;;;;;9.70;6.97;;;;;;;12.52;85.88;101899.09;2957629;78;21862;-88
2022/11/12 10:02:30;;;;;;;12.98;7.62;;;;;;;12.62;84.57;101906.91;2897218;80;21004;-86
2022/11/12 10:06:36;;;;;;;10.48;7.37;;;;;;;12.80;84.80;101899.50;2902635;80;21066;-87
2022/11/12 10:10:54;;;;;;;10.35;5.85;;;;;;;12.91;85.07;101897.94;2972993;78;21054;-86
2022/11/12 10:20:11;;;;;;;12.07;6.60;;;;;;;13.17;82.15;101900.68;2978677;78;21035;-86
2022/11/12 10:24:13;;;;;;;12.70;6.95;;;;;;;13.39;82.60;101914.30;2961164;77;21117;-87
2022/11/12 10:28:33;;;;;;;9.35;6.08;;;;;;;13.40;80.28;101912.50;2913346;79;21177;-87
2022/11/12 10:32:36;;;;;;;9.43;6.42;;;;;;;13.50;79.81;101908.25;2907457;79;20996;-87
2022/11/12 10:36:43;;;;;;;7.83;6.05;;;;;;;13.50;80.69;101912.26;2958934;78;21047;-87
2022/11/12 10:40:45;;;;;;;10.80;7.03;;;;;;;13.59;79.26;101909.94;2910469;79;22004;-86
2022/11/12 10:44:47;;;;;;;8.05;6.30;;;;;;;13.67;80.38;101916.93;2954595;78;21042;-88
2022/11/12 10:49:08;;;;;;;10.65;6.30;;;;;;;13.83;82.39;101905.55;2872404;79;21024;-89
2022/11/12 10:53:11;;;;;;;10.93;6.08;;;;;;;13.82;81.05;101897.15;2926316;77;21039;-88
2022/11/12 10:57:20;;;;;;;11.95;6.67;;;;;;;13.88;80.73;101901.69;2921741;78;21114;-88
2022/11/12 11:01:22;;;;;;;5.58;5.05;;;;;;;13.93;81.52;101892.84;2880164;80;20994;-89
2022/11/12 11:05:52;;;;;;;9.43;5.78;;;;;;;13.91;79.95;101901.00;2955692;78;21691;-92
2022/11/12 11:09:59;;;;;;;9.75;5.62;;;;;;;13.96;78.69;101898.84;2898311;79;21022;-92
2022/11/12 11:14:31;;;;;;;8.38;6.47;;;;;;;13.96;77.06;101902.86;2915115;79;21601;-93
2022/11/12 11:18:36;;;;;;;11.30;6.03;;;;;;;13.99;77.23;101899.96;2937118;78;20979;-91
2022/11/12 11:22:46;;;;;;;5.03;4.05;;;;;;;13.99;77.43;101895.11;2916058;79;20975;-90
2022/11/12 11:27:23;;;;;;;5.17;4.55;;;;;;;14.07;80.98;101895.41;2965111;77;21027;-93
2022/11/12 11:31:49;;;;;;;7.40;4.78;;;;;;;14.10;77.58;101897.86;2899815;79;21078;-88
2022/11/12 11:36:25;;;;;;;8.55;5.37;;;;;;;14.19;76.34;101907.55;2916602;77;21617;-89
2022/11/12 11:40:31;;;;;;;8.58;4.65;;;;;;;14.28;79.72;101901.52;2917135;77;21014;-87
2022/11/12 11:44:49;;;;;;;8.73;4.53;;;;;;;14.30;78.71;101896.07;2950724;79;21529;-89
2022/11/12 11:48:56;;;;;;;9.38;4.50;;;;;;;14.31;77.52;101897.78;2983958;77;21047;-88
2022/11/12 11:53:36;;;;;;;8.78;5.58;;;;;;;14.34;78.44;101897.05;2918744;78;21014;-87
2022/11/12 11:58:07;;;;;;;5.55;3.75;;;;;;;14.36;77.62;101891.13;2972366;78;21081;-88
2022/11/12 12:02:38;;;;;;;4.30;3.47;;;;;;;14.31;78.11;101892.42;2962784;78;21534;-88
2022/11/12 12:07:09;;;;;;;8.30;5.22;;;;;;;14.23;76.91;101887.63;2949389;78;21019;-88
2022/11/12 12:11:28;;;;;;;5.62;4.83;;;;;;;14.22;76.85;101885.91;2963561;77;21026;-88
2022/11/12 12:15:38;;;;;;;7.40;4.92;;;;;;;14.31;78.69;101887.07;2893496;79;21520;-87
2022/11/12 12:19:57;;;;;;;5.80;3.42;;;;;;;14.27;78.24;101879.73;2943373;78;20999;-87
2022/11/12 12:24:25;;;;;;;10.38;4.12;;;;;;;14.22;78.50;101877.39;2971233;78;21538;-87
2022/11/12 12:28:52;;;;;;;10.18;4.22;;;;;;;14.20;80.29;101879.32;2899425;78;20988;-87
2022/11/12 12:33:14;;;;;;;9.35;3.65;;;;;;;14.30;78.71;101889.38;2889754;79;21512;-87
2022/11/12 12:37:41;;;;;;;4.92;3.12;;;;;;;14.27;81.58;101882.41;2944313;78;20987;-87
2022/11/12 12:42:06;;;;;;;6.42;4.58;;;;;;;14.27;80.18;101878.40;2956328;78;20980;-87
2022/11/12 12:46:11;;;;;;;9.78;5.50;;;;;;;14.35;81.40;101876.04;2910168;79;21022;-87
2022/11/12 12:50:15;;;;;;;14.95;6.40;;;;;;;14.29;80.43;101869.77;2943406;78;20992;-88
2022/11/12 12:54:37;;;;;;;9.40;5.50;;;;;;;14.33;81.37;101881.95;2970304;78;21665;-88
2022/11/12 12:58:49;;;;;;;12.30;8.10;;;;;;;14.32;78.22;101876.23;3009775;77;21003;-89
2022/11/12 13:02:51;;;;;;;6.87;4.78;;;;;;;14.37;77.42;101872.77;2965116;79;20997;-89
2022/11/12 13:06:54;;;;;;;10.38;7.25;;;;;;;14.40;79.31;101879.23;2950397;78;21089;-88
2022/11/12 13:10:57;;;;;;;14.30;8.38;;;;;;;14.42;77.01;101878.63;2929829;79;21479;-88
2022/11/12 13:15:10;;;;;;;9.63;6.33;;;;;;;14.46;79.04;101873.05;2931810;78;21022;-88
2022/11/12 13:19:17;;;;;;;10.85;5.90;;;;;;;14.40;78.29;101869.86;2944893;78;20976;-89
2022/11/12 13:28:08;;;;;;;7.55;5.30;;;;;;;14.38;79.46;101872.27;2947040;78;21511;-89
2022/11/12 13:32:33;;;;;;;11.35;7.05;;;;;;;14.40;80.02;101881.03;2878161;80;21032;-88
2022/11/12 13:36:34;;;;;;;14.00;8.08;;;;;;;14.37;80.69;101879.92;2914633;79;21031;-88
2022/11/12 13:40:59;;;;;;;13.45;8.23;;;;;;;14.29;80.97;101883.16;2967199;78;21015;-88
2022/11/12 13:45:00;;;;;;;10.90;8.20;;;;;;;14.17;83.49;101869.34;2849726;81;21139;-89
2022/11/12 13:49:09;;;;;;;9.63;7.10;;;;;;;14.05;84.52;101877.73;2859204;81;21065;-88
2022/11/12 13:53:16;;;;;;;13.88;7.70;;;;;;;13.96;83.23;101876.61;2819652;80;21018;-88
2022/11/12 13:57:29;;;;;;;13.58;8.28;;;;;;;13.89;83.96;101872.16;2840388;82;21609;-88
2022/11/12 14:01:31;;;;;;;16.48;8.68;;;;;;;13.82;84.52;101868.20;2793621;81;21081;-88
2022/11/12 14:05:35;;;;;;;14.83;9.58;;;;;;;13.76;85.71;101874.86;2824955;81;21012;-88
2022/11/12 14:10:09;;;;;;;14.28;9.85;;;;;;;13.67;85.86;101871.47;2873520;81;21085;-89
2022/11/12 14:14:18;;;;;;;13.90;9.43;;;;;;;13.59;85.76;101872.00;2838255;81;21061;-89
2022/11/12 14:18:46;;;;;;;18.52;11.78;;;;;;;13.49;85.70;101866.94;2897803;80;21031;-89
2022/11/12 14:22:48;;;;;;;18.67;10.60;;;;;;;13.39;87.66;101873.37;2936225;78;20971;-89
2022/11/12 14:26:49;;;;;;;19.82;13.78;;;;;;;13.23;88.69;101862.84;2995078;77;21027;-88
2022/11/12 14:30:50;;;;;;;20.37;11.80;;;;;;;13.14;88.44;101864.33;2931457;79;21019;-90
2022/11/12 14:34:51;;;;;;;17.45;11.33;;;;;;;13.04;88.84;101864.59;2981043;77;20982;-90
2022/11/12 14:38:56;;;;;;;20.12;12.95;;;;;;;12.93;89.52;101868.82;2958902;77;21525;-90
2022/11/12 14:42:57;;;;;;;20.97;14.38;;;;;;;12.80;89.76;101875.95;2980563;77;21529;-89
2022/11/12 14:46:59;;;;;;;22.62;14.03;;;;;;;12.62;90.67;101870.87;2913600;79;21000;-89
2022/11/12 14:51:08;;;;;;;22.93;16.77;;;;;;;12.48;91.33;101880.24;2876787;80;21014;-88
2022/11/12 14:55:14;;;;;;;23.12;16.23;;;;;;;12.33;91.79;101870.92;2880378;80;21106;-89
2022/11/12 14:59:16;;;;;;;26.48;16.85;;;;;;;12.14;92.38;101873.43;2950142;77;21537;-89
2022/11/12 15:03:24;;;;;;;22.50;14.85;;;;;;;11.98;93.06;101872.64;3010259;77;21461;-89
2022/11/12 15:07:33;;;;;;;25.10;17.35;;;;;;;11.84;93.74;101870.38;2969574;77;20987;-87
2022/11/12 15:11:44;;;;;;;43.60;26.52;;;;;;;11.73;93.79;101863.52;2977585;78;21098;-89
2022/11/12 15:15:56;;;;;;;35.05;20.37;;;;;;;11.65;93.71;101865.80;2985305;78;20968;-89
2022/11/12 15:20:05;;;;;;;30.45;17.02;;;;;;;11.55;94.53;101864.18;2973046;79;21078;-88
2022/11/12 15:24:14;;;;;;;31.52;16.82;;;;;;;11.47;94.88;101856.64;2979305;77;21426;-88
2022/11/12 15:28:23;;;;;;;19.87;14.18;;;;;;;11.40;94.60;101851.32;2950790;79;21026;-88
2022/11/12 15:32:29;;;;;;;27.85;16.45;;;;;;;11.32;94.24;101858.90;2951838;78;20981;-88
2022/11/12 15:36:32;;;;;;;28.60;16.02;;;;;;;11.27;94.83;101861.38;2908311;79;21098;-86
2022/11/12 15:40:42;;;;;;;22.65;17.60;;;;;;;11.19;94.85;101854.29;2966933;78;21558;-89
2022/11/12 15:44:44;;;;;;;23.42;14.30;;;;;;;11.14;96.52;101860.37;2940485;78;20995;-87
2022/11/12 15:48:46;;;;;;;45.45;23.52;;;;;;;11.07;96.32;101853.70;2916241;79;20992;-87
2022/11/12 15:52:48;;;;;;;45.40;23.30;;;;;;;11.06;96.14;101859.49;2906055;79;21024;-88
2022/11/12 15:56:50;;;;;;;59.27;31.85;;;;;;;11.04;97.76;101855.23;2921098;78;21008;-88
2022/11/12 16:00:52;;;;;;;52.67;27.40;;;;;;;11.01;96.93;101850.92;2896147;78;20975;-88
2022/11/12 16:04:53;;;;;;;27.45;16.32;;;;;;;10.99;97.69;101865.65;2940038;78;21035;-88
2022/11/12 16:08:54;;;;;;;83.10;40.45;;;;;;;10.99;97.89;101856.81;2942281;78;20957;-88
2022/11/12 16:12:59;;;;;;;37.23;22.87;;;;;;;10.96;97.31;101856.52;2869248;79;21323;-88
2022/11/12 16:17:00;;;;;;;27.98;15.72;;;;;;;10.96;98.10;101866.32;2941766;78;21002;-90
2022/11/12 16:21:03;;;;;;;27.58;16.32;;;;;;;10.92;97.30;101866.12;2911668;79;21016;-90
2022/11/12 16:25:06;;;;;;;27.05;19.20;;;;;;;10.76;95.15;101870.13;2969067;78;21089;-90
2022/11/12 16:29:12;;;;;;;52.62;30.08;;;;;;;10.57;96.08;101879.16;2909945;79;21031;-90
2022/11/12 16:33:14;;;;;;;128.70;63.55;;;;;;;10.37;94.86;101885.08;2862624;80;21018;-91
2022/11/12 16:37:15;;;;;;;141.88;76.28;;;;;;;10.28;94.08;101878.96;2942048;78;21004;-92
2022/11/12 16:41:17;;;;;;;113.35;61.48;;;;;;;10.21;93.28;101881.09;2943849;78;21003;-89
2022/11/12 16:45:24;;;;;;;81.20;48.60;;;;;;;10.15;92.11;101887.59;2903235;80;20991;-91
2022/11/12 16:49:26;;;;;;;71.97;45.20;;;;;;;10.01;91.61;101886.16;2908424;79;20998;-88
2022/11/12 16:53:27;;;;;;;68.15;36.90;;;;;;;9.84;92.10;101891.93;2920477;79;21527;-91
2022/11/12 16:57:29;;;;;;;56.50;39.73;;;;;;;9.75;91.91;101893.73;2839487;80;20987;-90
2022/11/12 17:01:32;;;;;;;52.62;35.85;;;;;;;9.66;92.62;101903.04;2937315;78;20983;-90
2022/11/12 17:05:33;;;;;;;33.35;22.62;;;;;;;9.61;91.55;101897.57;2966187;78;21038;-91
2022/11/12 17:09:35;;;;;;;37.28;26.60;;;;;;;9.48;91.35;101900.01;2952386;78;21019;-90
2022/11/12 17:13:37;;;;;;;37.78;24.67;;;;;;;9.34;91.64;101891.42;2885954;78;21035;-91
2022/11/12 17:17:39;;;;;;;49.65;32.17;;;;;;;9.25;91.27;101897.61;2857265;80;22106;-92
2022/11/12 17:21:43;;;;;;;44.35;29.90;;;;;;;9.13;91.84;101896.89;2899085;80;20980;-92
2022/11/12 17:25:44;;;;;;;90.65;55.55;;;;;;;9.09;92.58;101897.98;2870003;80;21019;-91
2022/11/12 17:29:46;;;;;;;100.05;59.18;;;;;;;9.05;92.54;101898.59;2903766;80;21063;-92
2022/11/12 17:33:51;;;;;;;63.48;43.05;;;;;;;9.01;92.48;101901.02;2919180;79;28179;-94
2022/11/12 17:37:53;;;;;;;56.83;39.18;;;;;;;8.96;92.29;101899.91;2909375;79;21521;-92
2022/11/12 17:41:56;;;;;;;108.50;78.42;;;;;;;8.95;92.19;101900.00;2942225;77;20972;-88
2022/11/12 17:46:06;;;;;;;107.40;75.28;;;;;;;8.87;92.01;101893.73;2969241;78;20966;-92
2022/11/12 17:50:09;;;;;;;106.40;68.95;;;;;;;8.80;92.31;101891.84;2931419;79;20999;-91
2022/11/12 17:54:11;;;;;;;79.87;58.50;;;;;;;8.78;92.42;101892.84;2930296;78;21026;-91
2022/11/12 17:58:14;;;;;;;74.10;53.75;;;;;;;8.73;92.24;101901.02;2924720;78;21085;-92
2022/11/12 18:02:16;;;;;;;65.60;50.38;;;;;;;8.69;92.45;101905.64;2943681;78;21525;-94
2022/11/12 18:06:27;;;;;;;62.53;45.70;;;;;;;8.61;92.61;101903.80;2910021;78;21027;-94
2022/11/12 18:10:30;;;;;;;58.02;37.93;;;;;;;8.55;92.70;101902.77;2908947;79;21023;-92
2022/11/12 18:14:33;;;;;;;49.88;30.85;;;;;;;8.46;91.98;101901.86;2901811;79;21035;-93
2022/11/12 18:18:34;;;;;;;45.03;31.00;;;;;;;8.43;93.52;101907.67;2931989;79;20995;-92
2022/11/12 18:22:37;;;;;;;47.73;26.68;;;;;;;8.47;94.00;101909.73;2966090;77;21049;-94
2022/11/12 18:26:39;;;;;;;29.12;22.55;;;;;;;8.53;94.44;101911.27;2952743;78;20996;-93
2022/11/12 18:30:41;;;;;;;32.00;22.15;;;;;;;8.63;95.03;101908.56;2946890;78;20999;-91
2022/11/12 18:34:44;;;;;;;30.23;22.32;;;;;;;8.71;95.88;101919.68;2954028;77;21117;-93
2022/11/12 18:38:48;;;;;;;31.02;22.73;;;;;;;8.83;96.63;101914.25;2941025;79;21074;-92
2022/11/12 18:42:51;;;;;;;30.17;22.48;;;;;;;8.98;97.16;101923.25;2913283;79;20991;-93
2022/11/12 18:46:54;;;;;;;24.80;20.90;;;;;;;9.14;97.77;101915.41;2915241;79;20970;-94
2022/11/12 18:51:02;;;;;;;30.10;20.90;;;;;;;9.31;98.26;101920.31;2952323;78;21046;-93
2022/11/12 18:55:05;;;;;;;35.28;21.73;;;;;;;9.36;99.49;101925.41;2980854;78;21707;-92
2022/11/12 18:59:10;;;;;;;34.58;25.72;;;;;;;9.37;100.00;101924.46;2967310;79;21079;-93
2022/11/12 19:03:12;;;;;;;47.80;30.62;;;;;;;9.35;100.00;101918.37;2934494;79;21015;-93
2022/11/12 19:07:14;;;;;;;55.83;44.08;;;;;;;9.22;100.00;101918.98;2859283;78;21472;-90
2022/11/12 19:11:20;;;;;;;42.67;32.33;;;;;;;9.15;100.00;101914.92;2961256;78;21533;-87
2022/11/12 19:15:25;;;;;;;40.12;27.67;;;;;;;9.15;100.00;101910.94;2942382;77;72381;-61
2022/11/12 19:19:27;;;;;;;35.45;28.12;;;;;;;9.21;100.00;101907.97;2911816;78;21106;-60
2022/11/12 19:23:28;;;;;;;36.00;22.45;;;;;;;9.23;100.00;101904.77;2982598;78;21088;-62
2022/11/12 19:27:30;;;;;;;56.55;41.00;;;;;;;9.25;100.00;101907.36;2870820;80;20978;-60
2022/11/12 19:31:33;;;;;;;37.00;27.65;;;;;;;9.31;100.00;101898.23;2919990;80;21041;-62